• Join FlightAware (Why Join?)
  • Login
  • US Flag 
Trick or treat! (Boo!!) 
04:48AM EDT


 

Airport Tracker/Info


-or-


 

Live Flight TrackerFlight Track Log ✈ TPA841 ✈ 09-Jul-2013 ✈ KMIA - SBEG / MAO

Flight Track Log - Related Links

Times and Time Zones

All times are in EDT time to prevent confusion due to time zone crossing. See the TPA841 flight status page for this flight to view local times or setup timezone preferences in your user account.

Time Position Orientation Groundspeed Altitude Reporting Facility
EDT Latitude Longitude Course Direction KTS MPH feet Rate Location/Type
08:32AM 25.7836 -80.2717 115° Southeast 187 215 1,000  Level Miami Center
08:33AM 25.7717 -80.2436 115° Southeast 191 220 2,200 1,680 Climbing Miami Center
08:34AM 25.7600 -80.2089 110° East 239 275 3,000 2,280 Climbing Miami Center
08:35AM 25.7047 -80.1542 138° Southeast 284 327 6,000 3,000 Climbing Miami Center
08:36AM 25.6283 -80.1222 159° South 287 330 9,000 2,400 Climbing Miami Center
08:37AM 25.5494 -80.0903 160° South 302 348 10,900 1,800 Climbing Miami Center
08:38AM 25.4503 -80.0506 160° South 341 392 12,700 2,160 Climbing Miami Center
08:39AM 25.3444 -80.0067 159° South 381 438 15,300 2,580 Climbing Miami Center
08:40AM 25.2433 -79.9489 153° Southeast 401 461 17,900 2,220 Climbing Miami Center
08:41AM 25.1425 -79.8750 146° Southeast 412 474 19,800 1,980 Climbing Miami Center
08:42AM 25.0417 -79.8017 147° Southeast 434 499 21,900 2,100 Climbing Miami Center
08:43AM 24.9325 -79.7256 148° Southeast 449 517 24,000 1,860 Climbing Miami Center
08:44AM 24.8231 -79.6497 148° Southeast 455 524 25,700 1,680 Climbing Miami Center
08:45AM 24.7097 -79.5672 147° Southeast 473 544 27,400 1,680 Climbing Miami Center
08:46AM 24.5900 -79.4869 149° Southeast 485 558 29,100 1,800 Climbing Miami Center
08:47AM 24.4767 -79.4000 145° Southeast 497 572 31,100 1,860 Climbing Miami Center
08:48AM 24.3589 -79.3225 149° Southeast 497 572 32,900 1,500 Climbing Miami Center
08:49AM 24.2431 -79.2403 147° Southeast 497 572 34,200 1,020 Climbing Miami Center
08:50AM 24.1253 -79.1583 148° Southeast 497 572 35,000 360 Climbing Miami Center
08:51AM 24.0053 -79.0789 149° Southeast 497 572 35,000  Level Miami Center
08:53AM 23.8198 -78.9190 143° Southeast  Level FlightAware Approximate
09:00AM 23.1215 -78.3507 143° Southeast  Level FlightAware Approximate
09:01AM 23.0215 -78.2700 143° Southeast  Level FlightAware Approximate
09:02AM 22.9216 -78.1894 143° Southeast  Level FlightAware Approximate
09:03AM 22.8215 -78.1090 143° Southeast  Level FlightAware Approximate
09:04AM 22.7215 -78.0286 143° Southeast  Level FlightAware Approximate
09:05AM 22.6214 -77.9484 144° Southeast  Level FlightAware Approximate
09:06AM 22.5213 -77.8683 144° Southeast  Level FlightAware Approximate
09:07AM 22.4211 -77.7883 144° Southeast  Level FlightAware Approximate
09:08AM 22.3209 -77.7084 144° Southeast  Level FlightAware Approximate
09:09AM 22.2206 -77.6287 144° Southeast  Level FlightAware Approximate
09:10AM 22.1203 -77.5490 144° Southeast  Level FlightAware Approximate
09:11AM 22.0200 -77.4695 144° Southeast  Level FlightAware Approximate
09:12AM 21.9196 -77.3901 144° Southeast  Level FlightAware Approximate
09:13AM 21.8192 -77.3108 144° Southeast  Level FlightAware Approximate
09:14AM 21.7188 -77.2316 144° Southeast  Level FlightAware Approximate
09:15AM 21.6183 -77.1525 144° Southeast  Level FlightAware Approximate
09:16AM 21.5178 -77.0735 144° Southeast  Level FlightAware Approximate
09:17AM 21.4172 -76.9947 144° Southeast  Level FlightAware Approximate
09:18AM 21.3166 -76.9159 144° Southeast  Level FlightAware Approximate
09:19AM 21.2160 -76.8373 144° Southeast  Level FlightAware Approximate
09:20AM 21.1153 -76.7588 144° Southeast  Level FlightAware Approximate
09:21AM 21.0146 -76.6803 144° Southeast  Level FlightAware Approximate
09:22AM 20.9139 -76.6020 144° Southeast  Level FlightAware Approximate
09:23AM 20.8131 -76.5238 144° Southeast  Level FlightAware Approximate
09:24AM 20.7123 -76.4456 144° Southeast  Level FlightAware Approximate
09:25AM 20.6115 -76.3676 144° Southeast  Level FlightAware Approximate
09:26AM 20.5106 -76.2897 144° Southeast  Level FlightAware Approximate
09:27AM 20.4097 -76.2119 144° Southeast  Level FlightAware Approximate
09:28AM 20.3087 -76.1342 144° Southeast  Level FlightAware Approximate
09:29AM 20.2078 -76.0566 144° Southeast  Level FlightAware Approximate
09:30AM 20.1067 -75.9791 144° Southeast  Level FlightAware Approximate
09:31AM 20.0057 -75.9017 144° Southeast  Level FlightAware Approximate
09:32AM 19.9046 -75.8244 144° Southeast  Level FlightAware Approximate
09:33AM 19.8035 -75.7472 144° Southeast  Level FlightAware Approximate
09:34AM 19.7023 -75.6701 144° Southeast  Level FlightAware Approximate
09:35AM 19.6012 -75.5931 144° Southeast  Level FlightAware Approximate
09:36AM 19.4999 -75.5162 144° Southeast  Level FlightAware Approximate
09:37AM 19.3987 -75.4393 144° Southeast  Level FlightAware Approximate
09:38AM 19.2974 -75.3626 144° Southeast  Level FlightAware Approximate
09:39AM 19.1961 -75.2860 144° Southeast  Level FlightAware Approximate
09:40AM 19.0948 -75.2095 144° Southeast  Level FlightAware Approximate
09:41AM 18.9934 -75.1330 145° Southeast  Level FlightAware Approximate
09:42AM 18.8920 -75.0567 145° Southeast  Level FlightAware Approximate
09:43AM 18.7905 -74.9804 145° Southeast  Level FlightAware Approximate
09:44AM 18.6891 -74.9043 145° Southeast  Level FlightAware Approximate
09:45AM 18.5876 -74.8281 144° Southeast  Level FlightAware Approximate
09:46AM 18.4862 -74.7519 144° Southeast  Level FlightAware Approximate
09:47AM 18.3848 -74.6757 145° Southeast  Level FlightAware Approximate
09:48AM 18.2834 -74.5997 145° Southeast  Level FlightAware Approximate
09:49AM 18.1819 -74.5237 145° Southeast  Level FlightAware Approximate
09:50AM 18.0805 -74.4479 145° Southeast  Level FlightAware Approximate
09:51AM 17.9789 -74.3721 145° Southeast  Level FlightAware Approximate
09:52AM 17.8773 -74.2965 145° Southeast  Level FlightAware Approximate
09:53AM 17.7757 -74.2210 145° Southeast  Level FlightAware Approximate
09:54AM 17.6740 -74.1455 145° Southeast  Level FlightAware Approximate
09:55AM 17.5724 -74.0701 145° Southeast  Level FlightAware Approximate
09:56AM 17.4707 -73.9948 145° Southeast  Level FlightAware Approximate
09:57AM 17.3689 -73.9196 145° Southeast  Level FlightAware Approximate
09:58AM 17.2672 -73.8445 145° Southeast  Level FlightAware Approximate
09:59AM 17.1654 -73.7695 145° Southeast  Level FlightAware Approximate
10:00AM 17.0636 -73.6945 145° Southeast  Level FlightAware Approximate
10:01AM 16.9618 -73.6196 145° Southeast  Level FlightAware Approximate
10:02AM 16.8599 -73.5448 145° Southeast  Level FlightAware Approximate
10:03AM 16.7580 -73.4701 145° Southeast  Level FlightAware Approximate
10:04AM 16.6561 -73.3955 145° Southeast  Level FlightAware Approximate
10:05AM 16.5545 -73.3204 144° Southeast  Level FlightAware Approximate
10:06AM 16.4532 -73.2449 144° Southeast  Level FlightAware Approximate
10:07AM 16.3519 -73.1695 144° Southeast  Level FlightAware Approximate
10:08AM 16.2505 -73.0943 145° Southeast  Level FlightAware Approximate
10:09AM 16.1491 -73.0191 145° Southeast  Level FlightAware Approximate
10:10AM 16.0476 -72.9439 145° Southeast  Level FlightAware Approximate
10:11AM 15.9456 -72.8698 145° Southeast  Level FlightAware Approximate
10:12AM 15.8434 -72.7958 145° Southeast  Level FlightAware Approximate
10:13AM 15.7412 -72.7219 145° Southeast  Level FlightAware Approximate
10:14AM 15.6390 -72.6482 145° Southeast  Level FlightAware Approximate
10:15AM 15.5367 -72.5744 145° Southeast  Level FlightAware Approximate
10:16AM 15.4344 -72.5008 145° Southeast  Level FlightAware Approximate
10:17AM 15.3322 -72.4271 145° Southeast  Level FlightAware Approximate
10:18AM 15.2300 -72.3535 145° Southeast  Level FlightAware Approximate
10:19AM 15.1277 -72.2799 145° Southeast  Level FlightAware Approximate
10:20AM 15.0254 -72.2065 145° Southeast  Level FlightAware Approximate
10:21AM 14.9231 -72.1330 145° Southeast  Level FlightAware Approximate
10:22AM 14.8208 -72.0597 145° Southeast  Level FlightAware Approximate
10:23AM 14.7184 -71.9864 145° Southeast  Level FlightAware Approximate
10:24AM 14.6160 -71.9132 145° Southeast  Level FlightAware Approximate
10:25AM 14.5136 -71.8401 145° Southeast  Level FlightAware Approximate
10:26AM 14.4112 -71.7670 145° Southeast  Level FlightAware Approximate
10:27AM 14.3087 -71.6940 145° Southeast  Level FlightAware Approximate
10:28AM 14.2062 -71.6211 145° Southeast  Level FlightAware Approximate
10:29AM 14.1037 -71.5482 145° Southeast  Level FlightAware Approximate
10:30AM 14.0012 -71.4754 145° Southeast  Level FlightAware Approximate
10:31AM 13.8987 -71.4027 145° Southeast  Level FlightAware Approximate
10:32AM 13.7961 -71.3300 145° Southeast  Level FlightAware Approximate
10:33AM 13.6935 -71.2574 145° Southeast  Level FlightAware Approximate
10:34AM 13.5909 -71.1849 146° Southeast  Level FlightAware Approximate
10:35AM 13.4883 -71.1124 146° Southeast  Level FlightAware Approximate
10:36AM 13.3856 -71.0400 146° Southeast  Level FlightAware Approximate
10:37AM 13.2830 -70.9676 146° Southeast  Level FlightAware Approximate
10:38AM 13.1803 -70.8953 146° Southeast  Level FlightAware Approximate
10:39AM 13.0775 -70.8231 146° Southeast  Level FlightAware Approximate
10:40AM 12.9748 -70.7509 146° Southeast  Level FlightAware Approximate
10:41AM 12.8721 -70.6788 146° Southeast  Level FlightAware Approximate
10:42AM 12.7693 -70.6068 146° Southeast  Level FlightAware Approximate
10:43AM 12.6665 -70.5348 146° Southeast  Level FlightAware Approximate
10:44AM 12.5637 -70.4628 146° Southeast  Level FlightAware Approximate
10:45AM 12.4609 -70.3909 146° Southeast  Level FlightAware Approximate
10:46AM 12.3578 -70.3194 146° Southeast  Level FlightAware Approximate
10:47AM 12.2548 -70.2479 146° Southeast  Level FlightAware Approximate
10:48AM 12.1517 -70.1766 146° Southeast  Level FlightAware Approximate
10:49AM 12.0485 -70.1052 146° Southeast  Level FlightAware Approximate
10:50AM 11.9454 -70.0340 146° Southeast  Level FlightAware Approximate
10:51AM 11.8423 -69.9627 146° Southeast  Level FlightAware Approximate
10:52AM 11.7391 -69.8915 146° Southeast  Level FlightAware Approximate
10:53AM 11.6359 -69.8204 146° Southeast  Level FlightAware Approximate
10:54AM 11.5327 -69.7494 146° Southeast  Level FlightAware Approximate
10:55AM 11.4295 -69.6784 146° Southeast  Level FlightAware Approximate
10:56AM 11.3262 -69.6074 146° Southeast  Level FlightAware Approximate
10:57AM 11.2230 -69.5365 146° Southeast  Level FlightAware Approximate
10:58AM 11.1197 -69.4656 146° Southeast  Level FlightAware Approximate
10:59AM 11.0164 -69.3948 146° Southeast  Level FlightAware Approximate
11:00AM 10.9131 -69.3241 146° Southeast  Level FlightAware Approximate
11:01AM 10.8098 -69.2533 146° Southeast  Level FlightAware Approximate
11:02AM 10.7065 -69.1827 146° Southeast  Level FlightAware Approximate
11:03AM 10.6031 -69.1121 146° Southeast  Level FlightAware Approximate
11:04AM 10.4997 -69.0415 146° Southeast  Level FlightAware Approximate
11:05AM 10.3963 -68.9710 146° Southeast  Level FlightAware Approximate
11:06AM 10.2931 -68.9003 146° Southeast  Level FlightAware Approximate
11:07AM 10.1902 -68.8291 146° Southeast  Level FlightAware Approximate
11:08AM 10.0872 -68.7580 146° Southeast  Level FlightAware Approximate
11:09AM 9.9843 -68.6869 146° Southeast  Level FlightAware Approximate
11:10AM 9.8814 -68.6158 146° Southeast  Level FlightAware Approximate
11:11AM 9.7784 -68.5448 146° Southeast  Level FlightAware Approximate
11:12AM 9.6754 -68.4738 146° Southeast  Level FlightAware Approximate
11:13AM 9.5722 -68.4033 146° Southeast  Level FlightAware Approximate
11:14AM 9.4686 -68.3333 146° Southeast  Level FlightAware Approximate
11:15AM 9.3650 -68.2633 146° Southeast  Level FlightAware Approximate
11:16AM 9.2613 -68.1934 146° Southeast  Level FlightAware Approximate
11:17AM 9.1577 -68.1235 146° Southeast  Level FlightAware Approximate
11:18AM 9.0541 -68.0537 146° Southeast  Level FlightAware Approximate
11:19AM 8.9504 -67.9839 146° Southeast  Level FlightAware Approximate
11:20AM 8.8468 -67.9140 146° Southeast  Level FlightAware Approximate
11:21AM 8.7433 -67.8439 146° Southeast  Level FlightAware Approximate
11:22AM 8.6398 -67.7739 146° Southeast  Level FlightAware Approximate
11:23AM 8.5364 -67.7040 146° Southeast  Level FlightAware Approximate
11:24AM 8.4328 -67.6341 146° Southeast  Level FlightAware Approximate
11:25AM 8.3293 -67.5642 146° Southeast  Level FlightAware Approximate
11:26AM 8.2258 -67.4943 146° Southeast  Level FlightAware Approximate
11:27AM 8.1222 -67.4245 146° Southeast  Level FlightAware Approximate
11:28AM 8.0187 -67.3548 146° Southeast  Level FlightAware Approximate
11:29AM 7.9151 -67.2850 146° Southeast  Level FlightAware Approximate
11:30AM 7.8115 -67.2153 146° Southeast  Level FlightAware Approximate
11:31AM 7.7079 -67.1456 146° Southeast  Level FlightAware Approximate
11:32AM 7.6043 -67.0760 146° Southeast  Level FlightAware Approximate
11:33AM 7.5006 -67.0064 146° Southeast  Level FlightAware Approximate
11:34AM 7.3970 -66.9368 146° Southeast  Level FlightAware Approximate
11:35AM 7.2934 -66.8673 146° Southeast  Level FlightAware Approximate
11:36AM 7.1897 -66.7978 146° Southeast  Level FlightAware Approximate
11:37AM 7.0861 -66.7283 146° Southeast  Level FlightAware Approximate
11:38AM 6.9824 -66.6589 146° Southeast  Level FlightAware Approximate
11:39AM 6.8787 -66.5895 146° Southeast  Level FlightAware Approximate
11:40AM 6.7750 -66.5201 146° Southeast  Level FlightAware Approximate
11:41AM 6.6713 -66.4508 146° Southeast  Level FlightAware Approximate
11:42AM 6.5676 -66.3814 146° Southeast  Level FlightAware Approximate
11:43AM 6.4639 -66.3121 146° Southeast  Level FlightAware Approximate
11:44AM 6.3602 -66.2429 146° Southeast  Level FlightAware Approximate
11:45AM 6.2564 -66.1737 146° Southeast  Level FlightAware Approximate
11:46AM 6.1527 -66.1044 146° Southeast  Level FlightAware Approximate
11:47AM 6.0489 -66.0353 146° Southeast  Level FlightAware Approximate
11:48AM 5.9451 -65.9661 146° Southeast  Level FlightAware Approximate
11:49AM 5.8414 -65.8970 146° Southeast  Level FlightAware Approximate
11:50AM 5.7376 -65.8279 146° Southeast  Level FlightAware Approximate
11:51AM 5.6338 -65.7588 146° Southeast  Level FlightAware Approximate
11:52AM 5.5300 -65.6898 146° Southeast  Level FlightAware Approximate
11:53AM 5.4262 -65.6207 146° Southeast  Level FlightAware Approximate
11:54AM 5.3224 -65.5517 147° Southeast  Level FlightAware Approximate
11:55AM 5.2185 -65.4827 147° Southeast  Level FlightAware Approximate
11:56AM 5.1147 -65.4138 147° Southeast  Level FlightAware Approximate
11:57AM 5.0109 -65.3449 147° Southeast  Level FlightAware Approximate
11:58AM 4.9070 -65.2759 147° Southeast  Level FlightAware Approximate
11:59AM 4.8032 -65.2071 147° Southeast  Level FlightAware Approximate
12:00PM 4.6993 -65.1382 147° Southeast  Level FlightAware Approximate
12:01PM 4.5954 -65.0693 147° Southeast  Level FlightAware Approximate
12:02PM 4.4915 -65.0005 147° Southeast  Level FlightAware Approximate
12:03PM 4.3877 -64.9317 147° Southeast  Level FlightAware Approximate
12:04PM 4.2838 -64.8629 147° Southeast  Level FlightAware Approximate
12:05PM 4.1799 -64.7941 147° Southeast  Level FlightAware Approximate
12:06PM 4.0760 -64.7254 147° Southeast  Level FlightAware Approximate
12:07PM 3.9721 -64.6566 147° Southeast  Level FlightAware Approximate
12:08PM 3.8682 -64.5879 147° Southeast  Level FlightAware Approximate
12:09PM 3.7642 -64.5192 147° Southeast  Level FlightAware Approximate
12:10PM 3.6603 -64.4505 147° Southeast  Level FlightAware Approximate
12:11PM 3.5564 -64.3819 147° Southeast  Level FlightAware Approximate
12:12PM 3.4525 -64.3132 147° Southeast  Level FlightAware Approximate
12:13PM 3.3485 -64.2446 147° Southeast  Level FlightAware Approximate
12:14PM 3.2446 -64.1759 147° Southeast  Level FlightAware Approximate
12:15PM 3.1406 -64.1073 147° Southeast  Level FlightAware Approximate
12:16PM 3.0367 -64.0387 147° Southeast  Level FlightAware Approximate
12:17PM 2.9327 -63.9702 147° Southeast  Level FlightAware Approximate
12:18PM 2.8288 -63.9016 147° Southeast  Level FlightAware Approximate
12:19PM 2.7248 -63.8330 147° Southeast  Level FlightAware Approximate
12:20PM 2.6208 -63.7645 147° Southeast  Level FlightAware Approximate
12:21PM 2.5169 -63.6959 147° Southeast  Level FlightAware Approximate
12:22PM 2.4129 -63.6274 147° Southeast  Level FlightAware Approximate
12:23PM 2.3089 -63.5589 147° Southeast  Level FlightAware Approximate
12:24PM 2.2049 -63.4904 147° Southeast  Level FlightAware Approximate
12:25PM 2.1009 -63.4219 147° Southeast  Level FlightAware Approximate
12:26PM 1.9969 -63.3534 147° Southeast  Level FlightAware Approximate
12:27PM 1.8930 -63.2849 147° Southeast  Level FlightAware Approximate
12:28PM 1.7890 -63.2165 147° Southeast  Level FlightAware Approximate
12:29PM 1.6850 -63.1480 147° Southeast  Level FlightAware Approximate
12:30PM 1.5810 -63.0796 147° Southeast  Level FlightAware Approximate
12:31PM 1.4770 -63.0111 147° Southeast  Level FlightAware Approximate
12:32PM 1.3730 -62.9427 147° Southeast  Level FlightAware Approximate
12:33PM 1.2689 -62.8742 147° Southeast  Level FlightAware Approximate
12:34PM 1.1649 -62.8058 147° Southeast  Level FlightAware Approximate
12:35PM 1.0609 -62.7374 147° Southeast  Level FlightAware Approximate
12:36PM 0.9569 -62.6690 147° Southeast  Level FlightAware Approximate
12:37PM 0.8529 -62.6006 147° Southeast  Level FlightAware Approximate
12:38PM 0.7489 -62.5321 147° Southeast  Level FlightAware Approximate
12:39PM 0.6449 -62.4637 147° Southeast  Level FlightAware Approximate
12:40PM 0.5409 -62.3953 147° Southeast  Level FlightAware Approximate
12:41PM 0.4369 -62.3269 147° Southeast  Level FlightAware Approximate
12:42PM 0.3328 -62.2585 147° Southeast  Level FlightAware Approximate
12:43PM 0.2288 -62.1901 147° Southeast  Level FlightAware Approximate
12:44PM 0.1248 -62.1217 147° Southeast  Level FlightAware Approximate
12:45PM 0.0208 -62.0533 147° Southeast  Level FlightAware Approximate
12:46PM -0.0833 -61.9849 147° Southeast  Level FlightAware Approximate
12:47PM -0.1873 -61.9165 147° Southeast  Level FlightAware Approximate
12:48PM -0.2913 -61.8481 147° Southeast  Level FlightAware Approximate
12:49PM -0.3953 -61.7797 147° Southeast  Level FlightAware Approximate
12:50PM -0.4993 -61.7113 147° Southeast  Level FlightAware Approximate
12:51PM -0.6033 -61.6429 147° Southeast  Level FlightAware Approximate
12:52PM -0.7074 -61.5745 147° Southeast  Level FlightAware Approximate
12:53PM -0.8114 -61.5061 147° Southeast  Level FlightAware Approximate
12:54PM -0.9154 -61.4377 147° Southeast  Level FlightAware Approximate
12:55PM -1.0194 -61.3693 147° Southeast  Level FlightAware Approximate
12:56PM -1.1234 -61.3008 147° Southeast  Level FlightAware Approximate
12:57PM -1.2246 -61.2283 148° Southeast  Level FlightAware Approximate
12:58PM -1.3296 -61.1615 148° Southeast  Level FlightAware Approximate
12:59PM -1.4334 -61.0928 144° Southeast  Level FlightAware Approximate
01:00PM -1.5365 -61.0234 153° Southeast  Level FlightAware Approximate
01:01PM -1.6403 -60.9557 142° Southeast  Level FlightAware Approximate
01:02PM -1.7390 -60.8798 148° Southeast  Level FlightAware Approximate
01:03PM -1.8445 -60.8138 148° Southeast  Level FlightAware Approximate
01:04PM -1.9521 -60.7512 150° Southeast  Level FlightAware Approximate
01:05PM -2.0554 -60.6819 144° Southeast  Level FlightAware Approximate
01:06PM -2.1580 -60.6113 146° Southeast  Level FlightAware Approximate
01:07PM -2.2616 -60.5423 146° Southeast  Level FlightAware Approximate
01:08PM -2.3652 -60.4732 146° Southeast  Level FlightAware Approximate
01:09PM -2.4688 -60.4041 146° Southeast  Level FlightAware Approximate
01:10PM -2.5735 -60.3366 148° Southeast  Level FlightAware Approximate
01:11PM -2.6785 -60.2697 148° Southeast  Level FlightAware Approximate
01:12PM -2.7845 -60.2048 146° Southeast  Level FlightAware Approximate
01:13PM -2.8845 -60.1324 143° Southeast  Level FlightAware Approximate
01:14PM -2.9882 -60.0642 153° Southeast  Level FlightAware Approximate
01:15PM -3.0167 -60.0500 153° Southeast  Level FlightAware Approximate
01:16PM -3.0386 -60.0497 153° Southeast  Level Estimated
01:17PM -3.0386 -60.0497 153° Southeast  Level Estimated
01:18PM -3.0386 -60.0497 153° Southeast  Level Estimated
01:19PM -3.0386 -60.0497 153° Southeast  Level Estimated
01:20PM -3.0386 -60.0497 153° Southeast  Level Estimated
01:21PM -3.0386 -60.0497 153° Southeast  Level Estimated
01:22PM -3.0386 -60.0497 153° Southeast  Level Estimated
01:23PM -3.0386 -60.0497 153° Southeast  Level Estimated
01:24PM -3.0386 -60.0497 153° Southeast  Level Estimated
01:25PM -3.0386 -60.0497 153° Southeast  Level Estimated
01:26PM -3.0386 -60.0497 153° Southeast  Level Estimated
01:27PM -3.0386 -60.0497 153° Southeast  Level Estimated
01:28PM -3.0386 -60.0497 153° Southeast  Level Estimated